Time;durP1;ratioP1;P1;durP2;ratioP2;P2;SDS_P1;SDS_P2;PMS_P1;PMS_P2;Temp;Humidity;BMP_temperature;BMP_pressure;BME280_temperature;BME280_humidity;BME280_pressure;Samples;Min_cycle;Max_cycle;Signal;HPM_P1;HPM_P2
2022/10/18 00:02:51;;;;;;;24.75;11.00;;;9.30;99.90;;;;;;8347456;28;20064;-81
2022/10/18 00:06:52;;;;;;;21.65;11.88;;;9.20;99.90;;;;;;8321892;28;20512;-81
2022/10/18 00:10:52;;;;;;;17.73;10.70;;;9.20;99.90;;;;;;8338094;28;20032;-80
2022/10/18 00:14:53;;;;;;;21.23;10.48;;;9.30;99.90;;;;;;8345611;28;20036;-81
2022/10/18 00:18:53;;;;;;;15.85;10.38;;;9.30;99.90;;;;;;8372464;28;20028;-79
2022/10/18 00:22:54;;;;;;;22.45;10.18;;;9.30;99.90;;;;;;8373586;28;20024;-81
2022/10/18 00:26:54;;;;;;;17.90;10.80;;;9.40;99.90;;;;;;8355772;28;20025;-80
2022/10/18 00:30:55;;;;;;;18.23;10.52;;;9.30;99.90;;;;;;8347885;28;20040;-80
2022/10/18 00:34:56;;;;;;;21.85;10.88;;;9.30;99.90;;;;;;8374287;28;20025;-80
2022/10/18 00:38:57;;;;;;;20.25;11.23;;;9.20;99.90;;;;;;8375926;28;20052;-81
2022/10/18 00:42:58;;;;;;;21.05;11.02;;;9.20;99.90;;;;;;8351953;28;20021;-80
2022/10/18 00:47:07;;;;;;;27.80;13.25;;;9.30;99.90;;;;;;8346017;28;20029;-81
2022/10/18 00:51:08;;;;;;;21.52;10.52;;;9.50;99.90;;;;;;8340603;28;20052;-80
2022/10/18 00:55:09;;;;;;;12.65;8.00;;;9.80;99.90;;;;;;8374663;28;20112;-80
2022/10/18 00:59:12;;;;;;;16.55;8.10;;;10.10;99.90;;;;;;8355828;28;20044;-81
2022/10/18 01:03:13;;;;;;;12.75;8.15;;;10.00;99.90;;;;;;8350102;28;20021;-80
2022/10/18 01:07:35;;;;;;;18.95;8.20;;;9.90;99.90;;;;;;8356047;28;20048;-80
2022/10/18 01:11:44;;;;;;;15.27;8.05;;;9.60;99.90;;;;;;8365295;28;20017;-80
2022/10/18 01:16:15;;;;;;;12.15;8.27;;;9.30;99.90;;;;;;8373782;28;20450;-80
2022/10/18 01:20:34;;;;;;;10.88;7.82;;;9.20;99.90;;;;;;8351287;28;20413;-81
2022/10/18 01:24:56;;;;;;;12.32;8.02;;;9.00;99.90;;;;;;8370048;28;20021;-79
2022/10/18 01:29:27;;;;;;;17.77;8.82;;;8.90;99.90;;;;;;8359300;28;20075;-79
2022/10/18 01:33:40;;;;;;;15.45;8.80;;;8.90;99.90;;;;;;8356558;28;20025;-80
2022/10/18 01:37:44;;;;;;;18.52;8.65;;;9.10;99.90;;;;;;8348263;28;20017;-80
2022/10/18 01:41:47;;;;;;;11.90;7.85;;;9.20;99.90;;;;;;8346104;28;20017;-80
2022/10/18 01:45:49;;;;;;;18.20;9.13;;;9.20;99.90;;;;;;8341102;28;20021;-80
2022/10/18 01:49:59;;;;;;;18.35;8.95;;;9.30;99.90;;;;;;8340737;28;20129;-80
2022/10/18 01:54:01;;;;;;;16.42;9.40;;;9.30;99.90;;;;;;8347947;28;20036;-79
2022/10/18 01:58:23;;;;;;;12.48;8.35;;;9.30;99.90;;;;;;8345628;28;20029;-79
2022/10/18 02:02:40;;;;;;;15.32;8.30;;;9.30;99.90;;;;;;8328912;28;20032;-79
2022/10/18 02:06:44;;;;;;;18.00;8.13;;;9.40;99.90;;;;;;8341210;28;20020;-80
2022/10/18 02:10:49;;;;;;;13.52;7.82;;;9.40;99.90;;;;;;8339988;28;20028;-81
2022/10/18 02:14:51;;;;;;;24.15;9.02;;;9.50;99.90;;;;;;8347914;28;20036;-80
2022/10/18 02:19:11;;;;;;;13.88;8.25;;;9.60;99.90;;;;;;8350459;28;20025;-80
2022/10/18 02:23:13;;;;;;;12.82;7.88;;;9.60;99.90;;;;;;8343907;28;20493;-80
2022/10/18 02:27:14;;;;;;;10.23;7.13;;;9.70;99.90;;;;;;8365165;28;20404;-81
2022/10/18 02:31:22;;;;;;;18.20;7.63;;;9.70;99.90;;;;;;8358394;28;20033;-81
2022/10/18 02:35:31;;;;;;;16.75;7.25;;;9.70;99.90;;;;;;8352626;28;20032;-80
2022/10/18 02:39:42;;;;;;;9.95;6.75;;;9.80;99.90;;;;;;8372371;28;20074;-79
2022/10/18 02:43:42;;;;;;;9.27;6.88;;;9.80;99.90;;;;;;8344754;28;20032;-80
2022/10/18 02:47:43;;;;;;;13.35;7.53;;;9.80;99.90;;;;;;8340577;28;20485;-80
2022/10/18 02:51:43;;;;;;;16.75;8.75;;;9.90;99.90;;;;;;8354017;28;20017;-78
2022/10/18 02:55:44;;;;;;;15.15;9.35;;;10.00;99.90;;;;;;8354377;28;20028;-81
2022/10/18 02:59:44;;;;;;;19.35;9.90;;;10.00;99.90;;;;;;8352335;28;20504;-79
2022/10/18 03:03:45;;;;;;;16.83;9.45;;;10.00;99.90;;;;;;8338769;28;20032;-80
2022/10/18 03:07:45;;;;;;;17.67;11.00;;;10.00;99.90;;;;;;8347891;28;20049;-81
2022/10/18 03:11:46;;;;;;;20.75;10.93;;;10.10;99.90;;;;;;8355294;28;20025;-81
2022/10/18 03:15:47;;;;;;;17.95;9.15;;;10.20;99.90;;;;;;8354385;28;20646;-80
2022/10/18 03:19:47;;;;;;;15.85;9.85;;;10.30;99.90;;;;;;8355835;28;20416;-81
2022/10/18 03:23:48;;;;;;;15.52;9.20;;;10.30;99.90;;;;;;8371621;28;20036;-80
2022/10/18 03:27:48;;;;;;;13.85;8.90;;;10.30;99.90;;;;;;8347707;28;20405;-80
2022/10/18 03:31:49;;;;;;;22.88;10.02;;;10.20;99.90;;;;;;8320767;28;20033;-81
2022/10/18 03:35:49;;;;;;;16.92;9.73;;;10.30;99.90;;;;;;8347349;28;20028;-81
2022/10/18 03:39:50;;;;;;;17.05;9.82;;;10.30;99.90;;;;;;8324760;28;20022;-80
2022/10/18 03:43:51;;;;;;;14.23;9.25;;;10.30;99.90;;;;;;8319385;28;20032;-79
2022/10/18 03:47:51;;;;;;;13.75;8.73;;;10.40;99.90;;;;;;8322584;28;20056;-80
2022/10/18 03:51:52;;;;;;;14.77;8.18;;;10.50;99.90;;;;;;8334017;28;20037;-80
2022/10/18 03:55:53;;;;;;;13.27;8.63;;;10.40;99.90;;;;;;8346473;28;20025;-80
2022/10/18 03:59:54;;;;;;;13.82;8.35;;;10.40;99.90;;;;;;8358690;28;20021;-80
2022/10/18 04:03:55;;;;;;;20.27;9.82;;;10.40;99.90;;;;;;8339728;28;20455;-80
2022/10/18 04:07:56;;;;;;;14.90;9.75;;;10.50;99.90;;;;;;8329343;28;20489;-79
2022/10/18 04:11:56;;;;;;;15.38;10.13;;;10.70;99.90;;;;;;8350517;28;20116;-81
2022/10/18 04:15:57;;;;;;;14.50;10.32;;;10.60;99.90;;;;;;8306003;28;20149;-79
2022/10/18 04:19:57;;;;;;;20.05;10.57;;;10.60;99.90;;;;;;8350107;28;20089;-80
2022/10/18 04:23:58;;;;;;;19.40;10.23;;;10.50;99.90;;;;;;8332521;28;20083;-81
2022/10/18 04:27:59;;;;;;;22.88;11.65;;;10.50;99.90;;;;;;8347428;28;20036;-81
2022/10/18 04:31:59;;;;;;;17.38;10.93;;;10.60;99.90;;;;;;8343124;28;20029;-80
2022/10/18 04:36:00;;;;;;;15.80;10.70;;;10.70;99.90;;;;;;8342272;28;20021;-80
2022/10/18 04:40:01;;;;;;;15.15;10.40;;;11.20;99.90;;;;;;8354845;28;20025;-81
2022/10/18 04:44:01;;;;;;;23.77;10.23;;;11.30;99.90;;;;;;8316257;28;20032;-81
2022/10/18 04:48:02;;;;;;;13.82;9.65;;;11.40;99.90;;;;;;8336407;28;20029;-81
2022/10/18 04:52:03;;;;;;;14.15;9.40;;;11.30;99.90;;;;;;8319529;28;20282;-81
2022/10/18 04:56:03;;;;;;;22.45;10.50;;;11.20;99.90;;;;;;8351093;28;20060;-81
2022/10/18 05:00:05;;;;;;;21.23;11.18;;;11.10;99.90;;;;;;8336194;28;20036;-80
2022/10/18 05:04:05;;;;;;;17.40;11.05;;;11.10;99.90;;;;;;8348622;28;20089;-80
2022/10/18 05:08:06;;;;;;;17.30;11.50;;;11.20;99.90;;;;;;8318151;28;20431;-79
2022/10/18 05:12:10;;;;;;;17.70;11.95;;;11.30;99.90;;;;;;8328218;28;20021;-82
2022/10/18 05:16:10;;;;;;;19.85;12.48;;;11.30;99.90;;;;;;8344374;28;20047;-81
2022/10/18 05:20:11;;;;;;;17.77;11.43;;;11.40;99.90;;;;;;8344222;28;20634;-81
2022/10/18 05:24:12;;;;;;;17.83;12.38;;;11.30;99.90;;;;;;8347717;28;20020;-81
2022/10/18 05:28:12;;;;;;;15.57;12.30;;;11.20;99.90;;;;;;8347713;28;20500;-81
2022/10/18 05:32:13;;;;;;;17.35;11.27;;;11.20;99.90;;;;;;8338590;28;20083;-82
2022/10/18 05:36:14;;;;;;;17.20;12.50;;;11.10;99.90;;;;;;8362111;28;20028;-79
2022/10/18 05:40:14;;;;;;;16.58;10.95;;;11.00;99.90;;;;;;8344972;28;20082;-80
2022/10/18 05:44:15;;;;;;;18.73;11.38;;;10.90;99.90;;;;;;8345301;28;20022;-81
2022/10/18 05:48:16;;;;;;;21.88;12.32;;;10.70;99.90;;;;;;8344341;28;20021;-80
2022/10/18 05:52:17;;;;;;;20.00;13.65;;;10.60;99.90;;;;;;8344780;28;20032;-80
2022/10/18 05:56:17;;;;;;;21.58;13.68;;;10.60;99.90;;;;;;8335986;28;20156;-80
2022/10/18 06:00:18;;;;;;;21.30;14.82;;;10.50;99.90;;;;;;8335821;28;20116;-81
2022/10/18 06:04:19;;;;;;;24.42;14.93;;;10.60;99.90;;;;;;8363108;28;20677;-80
2022/10/18 06:08:19;;;;;;;23.30;15.13;;;10.50;99.90;;;;;;8362508;28;20049;-81
2022/10/18 06:12:20;;;;;;;27.33;15.55;;;10.50;99.90;;;;;;8344971;28;20071;-81
2022/10/18 06:16:22;;;;;;;27.67;16.33;;;10.60;99.90;;;;;;8361928;28;20630;-80
2022/10/18 06:20:22;;;;;;;30.67;18.63;;;10.80;99.90;;;;;;8344245;28;20017;-82
2022/10/18 06:24:23;;;;;;;37.80;20.90;;;10.80;99.90;;;;;;8344356;28;20017;-81
2022/10/18 06:28:23;;;;;;;32.65;22.27;;;11.20;99.90;;;;;;8336422;28;20078;-81
2022/10/18 06:32:24;;;;;;;31.17;19.92;;;11.50;99.90;;;;;;8355802;28;20032;-81
2022/10/18 06:36:25;;;;;;;32.15;18.45;;;11.50;99.90;;;;;;8363686;28;20457;-81
2022/10/18 06:40:25;;;;;;;23.60;15.82;;;11.70;99.90;;;;;;8344920;28;20043;-81
2022/10/18 06:44:26;;;;;;;23.27;15.10;;;11.80;99.90;;;;;;8333662;28;20028;-81
2022/10/18 06:48:26;;;;;;;23.70;16.02;;;12.00;99.90;;;;;;8345444;28;20508;-81
2022/10/18 06:52:27;;;;;;;24.77;14.80;;;12.10;99.90;;;;;;8364568;28;20025;-81
2022/10/18 06:56:28;;;;;;;23.63;14.52;;;12.20;99.90;;;;;;8344971;28;20059;-80
2022/10/18 07:00:28;;;;;;;21.35;13.23;;;12.20;99.90;;;;;;8348018;28;20029;-81
2022/10/18 07:04:29;;;;;;;19.33;13.40;;;12.00;99.90;;;;;;8346322;28;20431;-81
2022/10/18 07:08:30;;;;;;;19.65;13.65;;;11.90;99.90;;;;;;8336723;28;20571;-81
2022/10/18 07:12:32;;;;;;;26.90;14.95;;;11.90;99.90;;;;;;8345962;28;20028;-81
2022/10/18 07:16:33;;;;;;;28.27;16.33;;;11.90;99.90;;;;;;8345288;28;20036;-81
2022/10/18 07:20:34;;;;;;;30.73;16.13;;;12.00;99.90;;;;;;8350122;28;20031;-81
2022/10/18 07:24:34;;;;;;;22.65;16.60;;;12.20;99.90;;;;;;8352625;28;20025;-81
2022/10/18 07:28:35;;;;;;;22.23;14.68;;;12.20;99.90;;;;;;8369890;28;20060;-81
2022/10/18 07:32:36;;;;;;;26.60;16.00;;;12.50;99.90;;;;;;8364944;28;20032;-82
2022/10/18 07:36:36;;;;;;;24.25;13.95;;;12.50;99.90;;;;;;8372088;28;20013;-80
2022/10/18 07:40:37;;;;;;;22.50;13.80;;;12.90;99.90;;;;;;8344515;28;20044;-81
2022/10/18 07:44:38;;;;;;;23.20;14.00;;;13.10;99.90;;;;;;8362877;28;20071;-81
2022/10/18 07:48:39;;;;;;;24.05;13.30;;;13.20;99.90;;;;;;8352750;28;20166;-81
2022/10/18 07:52:39;;;;;;;20.48;12.35;;;13.80;99.90;;;;;;8354015;28;20055;-81
2022/10/18 07:56:41;;;;;;;15.77;10.93;;;13.90;99.90;;;;;;8346735;28;20417;-81
2022/10/18 08:00:42;;;;;;;20.27;9.50;;;14.20;99.90;;;;;;8341118;28;20044;-81
2022/10/18 08:04:42;;;;;;;12.50;8.32;;;14.40;99.90;;;;;;8370360;28;20048;-81
2022/10/18 08:08:44;;;;;;;10.25;7.50;;;14.50;99.90;;;;;;8371117;28;20507;-82
2022/10/18 08:12:45;;;;;;;12.82;7.20;;;14.80;99.90;;;;;;8371319;28;20105;-81
2022/10/18 08:16:45;;;;;;;11.93;6.90;;;15.20;99.90;;;;;;8351521;28;20372;-81
2022/10/18 08:20:46;;;;;;;10.45;6.18;;;15.50;99.90;;;;;;8353477;28;20028;-81
2022/10/18 08:24:46;;;;;;;8.80;5.55;;;15.70;99.90;;;;;;8369789;28;20079;-81
2022/10/18 08:28:48;;;;;;;9.80;5.10;;;15.90;99.90;;;;;;8353520;28;20048;-81
2022/10/18 08:32:48;;;;;;;9.65;5.45;;;16.20;99.90;;;;;;8358781;28;20037;-80
2022/10/18 08:36:49;;;;;;;8.98;5.57;;;16.40;99.90;;;;;;8363601;28;20029;-82
2022/10/18 08:40:50;;;;;;;9.43;5.32;;;16.50;99.90;;;;;;8345256;28;20036;-80
2022/10/18 08:44:51;;;;;;;11.70;5.60;;;16.80;99.90;;;;;;8352343;28;20025;-82
2022/10/18 08:48:54;;;;;;;7.63;5.78;;;16.80;99.90;;;;;;8345288;28;20027;-81
2022/10/18 08:53:04;;;;;;;7.75;4.90;;;17.10;99.90;;;;;;8363110;28;20374;-81
2022/10/18 08:57:12;;;;;;;;;;;17.30;99.90;;;;;;8362574;28;20025;-79
2022/10/18 09:01:33;;;;;;;9.90;4.50;;;17.40;99.90;;;;;;8336620;28;19908;-80
2022/10/18 09:05:55;;;;;;;9.55;5.03;;;17.90;99.90;;;;;;8343785;28;20021;-81
2022/10/18 09:10:18;;;;;;;7.38;4.50;;;18.20;99.90;;;;;;8344026;28;20032;-81
2022/10/18 09:14:40;;;;;;;5.75;4.60;;;18.60;99.90;;;;;;8361365;28;20025;-80
2022/10/18 09:19:04;;;;;;;8.38;4.45;;;19.10;99.90;;;;;;8362167;28;20024;-81
2022/10/18 09:23:25;;;;;;;9.70;4.72;;;19.50;99.90;;;;;;8345691;28;20025;-80
2022/10/18 09:27:39;;;;;;;9.18;4.10;;;19.80;99.90;;;;;;8353503;28;20021;-81
2022/10/18 09:31:52;;;;;;;8.40;3.80;;;20.10;99.90;;;;;;8353489;28;20024;-81
2022/10/18 09:35:59;;;;;;;6.28;3.78;;;20.30;99.90;;;;;;8343067;28;20488;-81
2022/10/18 09:40:27;;;;;;;7.10;3.80;;;20.70;99.90;;;;;;8361245;28;20078;-80
2022/10/18 09:44:38;;;;;;;7.45;3.67;;;21.10;99.90;;;;;;8331722;28;20032;-81
2022/10/18 09:48:50;;;;;;;6.15;3.85;;;21.20;99.90;;;;;;8353817;28;20027;-80
2022/10/18 09:53:02;;;;;;;7.13;4.00;;;21.50;99.90;;;;;;8343526;28;20021;-81
2022/10/18 09:57:11;;;;;;;8.75;3.83;;;21.90;99.90;;;;;;8343070;28;20050;-79
2022/10/18 10:01:17;;;;;;;5.50;3.90;;;22.40;99.90;;;;;;8335785;28;20017;-80
2022/10/18 10:05:18;;;;;;;5.60;3.83;;;22.70;99.90;;;;;;8343632;28;20025;-80
2022/10/18 10:10:08;;;;;;;7.10;3.70;;;23.00;99.90;;;;;;8352926;28;20040;-81
2022/10/18 10:14:18;;;;;;;7.20;3.38;;;23.30;99.90;;;;;;8326424;28;20037;-81
2022/10/18 10:18:21;;;;;;;8.15;3.60;;;23.30;99.90;;;;;;8361397;28;20438;-81
2022/10/18 10:22:35;;;;;;;7.82;3.60;;;23.10;99.90;;;;;;8355295;28;20033;-79
2022/10/18 10:26:37;;;;;;;8.05;4.00;;;22.90;99.90;;;;;;8353175;28;20017;-80
2022/10/18 10:30:38;;;;;;;5.60;3.90;;;23.30;99.90;;;;;;8344899;28;20029;-81
2022/10/18 10:34:39;;;;;;;6.25;4.30;;;23.40;99.90;;;;;;8346924;28;20029;-81
2022/10/18 10:38:40;;;;;;;8.52;4.32;;;23.00;99.90;;;;;;8347902;28;20017;-79
2022/10/18 10:43:06;;;;;;;6.25;3.67;;;23.20;99.90;;;;;;8333280;28;20485;-80
2022/10/18 10:47:06;;;;;;;8.80;4.18;;;24.10;99.90;;;;;;8339847;28;20120;-80
2022/10/18 10:51:09;;;;;;;6.82;3.65;;;24.70;99.90;;;;;;8343622;28;20392;-81
2022/10/18 10:55:21;;;;;;;5.53;3.67;;;25.60;99.90;;;;;;8348771;28;20396;-81
2022/10/18 10:59:25;;;;;;;6.25;3.55;;;26.20;99.90;;;;;;8363439;28;20021;-80
2022/10/18 11:03:26;;;;;;;7.75;3.60;;;26.00;99.90;;;;;;8346166;28;20027;-81
2022/10/18 11:07:28;;;;;;;5.00;3.40;;;26.10;99.90;;;;;;8349359;28;20025;-82
2022/10/18 11:11:35;;;;;;;5.18;3.17;;;25.50;99.90;;;;;;8367058;28;20048;-81
2022/10/18 11:15:43;;;;;;;7.25;3.53;;;25.60;99.90;;;;;;8349348;28;20057;-81
2022/10/18 11:20:06;;;;;;;5.07;3.20;;;25.70;99.90;;;;;;8349371;28;20019;-82
2022/10/18 11:24:14;;;;;;;5.72;3.17;;;26.50;99.90;;;;;;8359056;28;20453;-79
2022/10/18 11:28:40;;;;;;;5.57;3.38;;;26.60;99.90;;;;;;8344010;28;20060;-81
2022/10/18 11:32:48;;;;;;;5.07;3.20;;;26.50;99.90;;;;;;8344002;28;20296;-81
2022/10/18 11:37:09;;;;;;;5.43;2.95;;;26.70;99.90;;;;;;8354870;28;20119;-82
2022/10/18 11:41:21;;;;;;;5.90;3.10;;;27.40;99.90;;;;;;8364349;28;20025;-81
2022/10/18 11:45:40;;;;;;;5.15;3.25;;;27.00;99.90;;;;;;8347734;28;20392;-81
2022/10/18 11:49:49;;;;;;;6.97;3.25;;;25.40;99.90;;;;;;8374539;28;20108;-81
2022/10/18 11:54:14;;;;;;;5.90;2.72;;;24.70;99.90;;;;;;8355333;28;20116;-81
2022/10/18 11:58:33;;;;;;;5.07;2.83;;;26.30;99.90;;;;;;8374476;28;20520;-80
2022/10/18 12:02:47;;;;;;;5.68;2.40;;;27.10;99.90;;;;;;8354033;28;20025;-81
2022/10/18 12:06:52;;;;;;;5.65;2.40;;;27.80;99.90;;;;;;8339433;28;20052;-81
2022/10/18 12:10:56;;;;;;;6.35;2.50;;;28.50;99.90;;;;;;8330300;28;20021;-81
2022/10/18 12:15:04;;;;;;;5.95;2.70;;;29.20;99.60;;;;;;8363862;28;20033;-82
2022/10/18 12:19:17;;;;;;;5.65;2.92;;;29.10;97.70;;;;;;8364026;28;20548;-81
2022/10/18 12:23:28;;;;;;;9.00;2.65;;;28.20;99.90;;;;;;8346031;28;20021;-80
2022/10/18 12:27:39;;;;;;;4.55;2.42;;;26.80;99.90;;;;;;8364239;28;20448;-80
2022/10/18 12:31:48;;;;;;;7.65;2.65;;;25.20;99.90;;;;;;8338600;28;20091;-80
2022/10/18 12:36:15;;;;;;;4.45;2.70;;;24.20;99.90;;;;;;8363485;28;20025;-81
2022/10/18 12:40:31;;;;;;;8.15;2.72;;;23.90;99.90;;;;;;8362683;28;20032;-81
2022/10/18 12:44:34;;;;;;;5.53;2.53;;;23.70;99.90;;;;;;8348794;28;20075;-81
2022/10/18 12:48:47;;;;;;;5.03;2.53;;;23.00;99.90;;;;;;8341260;28;20120;-81
2022/10/18 12:53:15;;;;;;;8.48;2.90;;;22.60;99.90;;;;;;8345075;28;20061;-81
2022/10/18 12:57:22;;;;;;;6.57;2.30;;;22.60;99.90;;;;;;8348080;28;20037;-81
2022/10/18 13:01:24;;;;;;;5.95;3.10;;;22.60;99.90;;;;;;8341767;28;20025;-81
2022/10/18 13:05:48;;;;;;;6.43;2.60;;;23.20;99.90;;;;;;8359814;28;20096;-81
2022/10/18 13:10:11;;;;;;;6.88;2.47;;;23.80;99.90;;;;;;8364875;28;20500;-79
2022/10/18 13:14:30;;;;;;;6.15;3.00;;;23.80;99.90;;;;;;8346330;28;20507;-81
2022/10/18 13:18:51;;;;;;;4.50;2.35;;;23.80;99.90;;;;;;8338230;28;20112;-81
2022/10/18 13:23:03;;;;;;;5.05;3.05;;;23.90;99.90;;;;;;8364292;28;20027;-80
2022/10/18 13:27:31;;;;;;;4.97;2.65;;;24.30;99.90;;;;;;8322457;28;20103;-81
2022/10/18 13:31:57;;;;;;;5.13;3.05;;;24.00;99.90;;;;;;8317276;28;20025;-80
2022/10/18 13:36:25;;;;;;;8.38;2.70;;;23.80;99.90;;;;;;8276586;28;20061;-81
2022/10/18 13:40:26;;;;;;;7.38;2.90;;;23.50;99.90;;;;;;8320499;28;20037;-81
2022/10/18 13:44:45;;;;;;;9.93;2.75;;;23.20;99.90;;;;;;8336066;28;20017;-82
2022/10/18 13:48:55;;;;;;;8.35;2.72;;;23.00;99.90;;;;;;8338304;28;20020;-80
2022/10/18 13:53:05;;;;;;;;;;;23.20;99.90;;;;;;8347553;28;20489;-82
2022/10/18 13:57:37;;;;;;;5.18;2.55;;;23.20;99.90;;;;;;8355888;28;20365;-80
2022/10/18 14:01:47;;;;;;;9.45;2.53;;;23.40;99.90;;;;;;8357272;28;20025;-81
2022/10/18 14:06:08;;;;;;;8.60;3.05;;;23.20;99.90;;;;;;8364443;28;20025;-81
2022/10/18 14:10:22;;;;;;;7.43;2.95;;;22.70;99.90;;;;;;8332874;28;20123;-82
2022/10/18 14:14:28;;;;;;;7.03;2.88;;;22.50;99.90;;;;;;8346788;28;20032;-81
2022/10/18 14:18:36;;;;;;;8.32;2.60;;;22.20;99.90;;;;;;8346988;28;20020;-81
2022/10/18 14:22:56;;;;;;;8.18;2.92;;;21.70;99.90;;;;;;8355548;28;20108;-81
2022/10/18 14:27:32;;;;;;;9.02;2.78;;;21.80;99.90;;;;;;8346108;28;20068;-81
2022/10/18 14:31:33;;;;;;;7.75;2.90;;;22.90;99.90;;;;;;8219880;28;20037;-82
2022/10/18 14:35:34;;;;;;;10.13;5.97;;;23.70;99.90;;;;;;8370489;28;20032;-80
2022/10/18 14:39:37;;;;;;;8.55;3.90;;;24.80;99.90;;;;;;8346413;28;20028;-82
2022/10/18 14:43:38;;;;;;;17.77;3.42;;;25.00;99.90;;;;;;8343627;28;20036;-82
2022/10/18 14:47:38;;;;;;;5.38;2.70;;;24.00;99.90;;;;;;8344469;28;20481;-81
2022/10/18 14:51:42;;;;;;;7.40;3.25;;;23.00;99.90;;;;;;8367819;28;20500;-82
2022/10/18 14:55:51;;;;;;;9.57;3.30;;;22.50;99.90;;;;;;8352605;28;20468;-81
2022/10/18 14:59:56;;;;;;;18.52;10.60;;;22.10;99.90;;;;;;8339547;28;20041;-81
2022/10/18 15:04:05;;;;;;;9.93;3.67;;;21.80;99.90;;;;;;8342650;28;20026;-82
2022/10/18 15:08:08;;;;;;;9.68;3.35;;;21.60;99.90;;;;;;8340301;28;20029;-82
2022/10/18 15:12:12;;;;;;;10.95;4.22;;;21.50;99.90;;;;;;8357551;28;20029;-82
2022/10/18 15:16:22;;;;;;;10.27;3.33;;;21.50;99.90;;;;;;8346882;28;20452;-83
2022/10/18 15:20:27;;;;;;;5.00;3.65;;;21.30;99.90;;;;;;8369374;28;20511;-82
2022/10/18 15:24:37;;;;;;;14.27;4.90;;;20.90;99.90;;;;;;8367438;28;20025;-82
2022/10/18 15:28:51;;;;;;;11.10;3.80;;;20.50;99.90;;;;;;8389960;28;20025;-82
2022/10/18 15:33:00;;;;;;;16.25;4.13;;;20.20;99.90;;;;;;8368414;28;20116;-82
2022/10/18 15:37:16;;;;;;;10.88;4.00;;;20.10;99.90;;;;;;8339107;28;20021;-82
2022/10/18 15:41:37;;;;;;;10.77;4.40;;;20.10;99.90;;;;;;8354756;28;20533;-82
2022/10/18 15:45:46;;;;;;;8.38;3.75;;;20.30;99.90;;;;;;8352408;28;20137;-82
2022/10/18 15:49:58;;;;;;;8.52;3.72;;;20.20;99.90;;;;;;8340083;28;20425;-82
2022/10/18 15:53:59;;;;;;;11.75;4.15;;;19.70;99.90;;;;;;8348189;28;20055;-82
2022/10/18 15:58:16;;;;;;;13.75;4.10;;;19.50;99.90;;;;;;8338900;28;20021;-81
2022/10/18 16:02:17;;;;;;;9.63;4.10;;;19.50;99.90;;;;;;8319994;28;20025;-81
2022/10/18 16:06:18;;;;;;;7.82;4.03;;;19.00;99.90;;;;;;8351393;28;20032;-82
2022/10/18 16:10:19;;;;;;;9.63;4.05;;;18.60;99.90;;;;;;8327931;28;20029;-81
2022/10/18 16:14:20;;;;;;;14.75;4.53;;;18.40;99.90;;;;;;8316458;28;20524;-81
2022/10/18 16:18:23;;;;;;;7.63;4.05;;;18.40;99.90;;;;;;8361388;28;20025;-82
2022/10/18 16:22:24;;;;;;;7.88;4.65;;;18.20;99.90;;;;;;8349604;28;20025;-81
2022/10/18 16:26:25;;;;;;;8.90;4.80;;;18.10;99.90;;;;;;8325821;28;20025;-82
2022/10/18 16:30:31;;;;;;;12.00;3.90;;;17.80;99.90;;;;;;8339655;28;20688;-81
2022/10/18 16:34:32;;;;;;;6.90;3.90;;;17.80;99.90;;;;;;8329663;28;20027;-81
2022/10/18 16:38:34;;;;;;;5.63;3.78;;;17.30;99.90;;;;;;8324667;28;20021;-81
2022/10/18 16:42:35;;;;;;;8.15;3.92;;;17.10;99.90;;;;;;8317443;28;20025;-79
2022/10/18 16:46:36;;;;;;;14.75;4.85;;;16.90;99.90;;;;;;8313537;28;20018;-81
2022/10/18 16:50:37;;;;;;;8.93;4.78;;;16.80;99.90;;;;;;8306098;28;20033;-81
2022/10/18 16:54:37;;;;;;;11.90;5.05;;;16.70;99.90;;;;;;8307130;28;20034;-80
2022/10/18 16:58:38;;;;;;;10.63;4.85;;;16.40;99.90;;;;;;8315434;28;20026;-80
2022/10/18 17:02:38;;;;;;;17.23;5.43;;;16.40;99.90;;;;;;8321262;28;20017;-80
2022/10/18 17:06:39;;;;;;;13.63;5.47;;;16.20;99.90;;;;;;8319291;28;20056;-81
2022/10/18 17:10:39;;;;;;;12.50;5.82;;;16.20;99.90;;;;;;8324078;28;20218;-81
2022/10/18 17:14:40;;;;;;;14.32;5.63;;;16.10;99.90;;;;;;8325325;28;20025;-81
2022/10/18 17:18:41;;;;;;;13.45;5.53;;;15.90;99.90;;;;;;8343442;28;20025;-81
2022/10/18 17:22:41;;;;;;;13.05;5.75;;;15.90;99.90;;;;;;8324528;28;20543;-80
2022/10/18 17:26:42;;;;;;;8.68;5.82;;;15.90;99.90;;;;;;8340477;28;20028;-81
2022/10/18 17:30:43;;;;;;;11.05;5.82;;;16.00;99.90;;;;;;8330868;28;20036;-81
2022/10/18 17:34:44;;;;;;;12.43;5.90;;;16.20;99.90;;;;;;8332157;28;20029;-81
2022/10/18 17:38:47;;;;;;;8.95;5.47;;;16.40;99.90;;;;;;8334824;28;20014;-81
2022/10/18 17:42:47;;;;;;;10.07;4.70;;;16.30;99.90;;;;;;8340546;28;20107;-81
2022/10/18 17:46:48;;;;;;;12.00;4.65;;;16.60;99.90;;;;;;8314496;28;20029;-81
2022/10/18 17:50:49;;;;;;;15.80;4.93;;;16.50;99.90;;;;;;8307833;28;20033;-81
2022/10/18 17:54:49;;;;;;;14.05;4.90;;;16.20;99.90;;;;;;8340623;28;20038;-82
2022/10/18 17:58:50;;;;;;;12.18;5.03;;;16.10;99.90;;;;;;8325300;28;20034;-81
2022/10/18 18:02:51;;;;;;;14.00;8.88;;;16.00;99.90;;;;;;8333373;28;20029;-81
2022/10/18 18:06:51;;;;;;;16.58;7.68;;;16.00;99.90;;;;;;8312319;28;20033;-81
2022/10/18 18:10:55;;;;;;;18.13;8.27;;;16.00;99.90;;;;;;8307108;28;20029;-81
2022/10/18 18:14:56;;;;;;;12.63;7.68;;;16.00;99.90;;;;;;8329960;28;20090;-81
2022/10/18 18:18:57;;;;;;;13.52;9.60;;;16.00;99.90;;;;;;8302250;28;20029;-82
2022/10/18 18:22:57;;;;;;;10.88;7.30;;;15.90;99.90;;;;;;8310085;28;20037;-82
2022/10/18 18:26:58;;;;;;;12.65;6.78;;;15.70;99.90;;;;;;8311060;28;20083;-81
2022/10/18 18:30:59;;;;;;;14.40;7.18;;;15.60;99.90;;;;;;8326914;28;20427;-82
2022/10/18 18:34:59;;;;;;;15.43;6.53;;;15.40;99.90;;;;;;8341004;28;20681;-82
2022/10/18 18:39:00;;;;;;;10.88;6.93;;;15.50;99.90;;;;;;8321876;28;20053;-81
2022/10/18 18:43:01;;;;;;;11.95;6.63;;;15.40;99.90;;;;;;8339938;28;20033;-81
2022/10/18 18:47:03;;;;;;;12.32;6.43;;;15.30;99.90;;;;;;8312368;28;20041;-81
2022/10/18 18:51:04;;;;;;;11.88;5.80;;;15.30;99.90;;;;;;8316649;28;20041;-81
2022/10/18 18:55:05;;;;;;;10.50;5.50;;;15.30;99.90;;;;;;8338269;28;20033;-82
2022/10/18 18:59:06;;;;;;;13.55;5.72;;;15.20;99.90;;;;;;8330946;28;20044;-81
2022/10/18 19:03:08;;;;;;;10.48;6.00;;;15.30;99.90;;;;;;8320497;28;20072;-80
2022/10/18 19:07:08;;;;;;;11.30;5.70;;;15.40;99.90;;;;;;8337121;28;20444;-81
2022/10/18 19:11:12;;;;;;;10.20;6.35;;;15.40;99.90;;;;;;8322208;28;20087;-80
2022/10/18 19:15:12;;;;;;;11.02;5.85;;;15.40;99.90;;;;;;8334735;28;20041;-81
2022/10/18 19:19:16;;;;;;;11.55;6.05;;;15.50;99.90;;;;;;8327054;28;20037;-80
2022/10/18 19:23:17;;;;;;;9.77;6.18;;;15.40;99.90;;;;;;8311597;28;20052;-80
2022/10/18 19:27:17;;;;;;;10.90;6.13;;;15.30;99.90;;;;;;8330377;28;20068;-81
2022/10/18 19:31:18;;;;;;;14.85;8.43;;;15.10;99.90;;;;;;8330856;28;20755;-81
2022/10/18 19:35:18;;;;;;;11.65;7.20;;;14.90;99.90;;;;;;8338551;28;20501;-81
2022/10/18 19:39:24;;;;;;;18.60;7.47;;;14.80;99.90;;;;;;8337160;28;20392;-80
2022/10/18 19:43:26;;;;;;;14.90;7.68;;;14.60;99.90;;;;;;8338526;28;20033;-82
2022/10/18 19:47:26;;;;;;;10.43;6.80;;;14.60;99.90;;;;;;8349691;28;20032;-80
2022/10/18 19:51:27;;;;;;;10.65;8.02;;;14.50;99.90;;;;;;8328956;28;20044;-78
2022/10/18 19:55:27;;;;;;;11.23;7.57;;;14.30;99.90;;;;;;8337010;28;20025;-79
2022/10/18 19:59:28;;;;;;;10.30;7.13;;;14.20;99.90;;;;;;8317101;28;20169;-81
2022/10/18 20:03:31;;;;;;;13.15;7.43;;;14.20;99.90;;;;;;8316342;28;20033;-81
2022/10/18 20:07:32;;;;;;;14.30;7.30;;;14.10;99.90;;;;;;8332112;28;20484;-81
2022/10/18 20:11:33;;;;;;;11.68;7.68;;;14.00;99.90;;;;;;8353797;28;20036;-81
2022/10/18 20:15:34;;;;;;;11.02;8.25;;;13.90;99.90;;;;;;8309648;28;20034;-81
2022/10/18 20:19:34;;;;;;;10.93;7.80;;;13.90;99.90;;;;;;8323141;28;20025;-80
2022/10/18 20:23:37;;;;;;;18.00;7.90;;;13.90;99.90;;;;;;8318099;28;20378;-80
2022/10/18 20:27:37;;;;;;;12.00;8.18;;;13.80;99.90;;;;;;8368531;28;20099;-79
2022/10/18 20:31:38;;;;;;;13.25;7.68;;;13.80;99.90;;;;;;8327681;28;20036;-79
2022/10/18 20:35:39;;;;;;;13.10;7.05;;;13.70;99.90;;;;;;8351176;28;20025;-80
2022/10/18 20:39:39;;;;;;;11.40;6.25;;;13.80;99.90;;;;;;8347399;28;20028;-80
2022/10/18 20:43:40;;;;;;;15.07;8.27;;;13.90;99.90;;;;;;8344900;28;20074;-80
2022/10/18 20:47:41;;;;;;;15.98;7.15;;;13.60;99.90;;;;;;8349678;28;20079;-80
2022/10/18 20:51:42;;;;;;;10.93;6.82;;;13.80;99.90;;;;;;8353778;28;20044;-78
2022/10/18 20:55:42;;;;;;;15.05;7.88;;;13.50;99.90;;;;;;8339223;28;20017;-79
2022/10/18 20:59:43;;;;;;;19.67;8.25;;;13.20;99.90;;;;;;8358723;28;20067;-80
2022/10/18 21:03:44;;;;;;;17.90;9.05;;;13.00;99.90;;;;;;8343194;28;20494;-80
2022/10/18 21:07:45;;;;;;;12.70;9.00;;;12.80;99.90;;;;;;8346143;28;20556;-81